createdAt,value
2018-11-04T00:00:57.394Z,7.75
2018-11-04T00:06:00.870Z,8.00
2018-11-04T00:11:04.300Z,5.75
2018-11-04T00:16:07.754Z,8.60
2018-11-04T00:21:11.237Z,6.00
2018-11-04T00:26:14.786Z,6.80
2018-11-04T00:31:18.241Z,7.00
2018-11-04T00:36:21.701Z,5.60
2018-11-04T00:41:25.161Z,6.00
2018-11-04T00:46:28.627Z,6.00
2018-11-04T00:51:32.059Z,5.75
2018-11-04T00:56:35.514Z,7.25
2018-11-04T01:01:38.967Z,6.75
2018-11-04T01:06:42.406Z,5.00
2018-11-04T01:11:45.903Z,6.00
2018-11-04T01:16:49.369Z,7.00
2018-11-04T01:21:52.863Z,5.00
2018-11-04T01:26:56.305Z,7.50
2018-11-04T01:31:59.773Z,6.20
2018-11-04T01:37:03.294Z,7.25
2018-11-04T01:42:06.744Z,6.00
2018-11-04T01:47:10.221Z,6.00
2018-11-04T01:52:13.692Z,8.00
2018-11-04T01:57:17.142Z,5.75
2018-11-04T02:02:20.622Z,6.25
2018-11-04T02:07:24.062Z,6.00
2018-11-04T02:12:27.550Z,5.50
2018-11-04T02:17:30.994Z,6.50
2018-11-04T02:22:34.439Z,7.00
2018-11-04T02:27:37.875Z,4.50
2018-11-04T02:32:41.740Z,6.50
2018-11-04T02:37:45.210Z,6.50
2018-11-04T02:42:48.671Z,6.00
2018-11-04T02:47:52.126Z,6.20
2018-11-04T02:52:56.178Z,6.25
2018-11-04T02:57:59.604Z,8.60
2018-11-04T03:03:03.055Z,4.25
2018-11-04T03:08:06.558Z,5.00
2018-11-04T03:13:09.998Z,5.00
2018-11-04T03:18:14.192Z,6.75
2018-11-04T03:23:17.647Z,7.50
2018-11-04T03:28:21.120Z,4.80
2018-11-04T03:33:24.574Z,5.40
2018-11-04T03:38:28.024Z,7.00
2018-11-04T03:43:31.515Z,6.00
2018-11-04T03:48:34.984Z,6.80
2018-11-04T03:53:38.615Z,6.00
2018-11-04T03:58:42.081Z,5.00
2018-11-04T04:03:45.554Z,7.75
2018-11-04T04:08:49.063Z,7.60
2018-11-04T04:13:52.509Z,5.00
2018-11-04T04:18:55.979Z,6.80
2018-11-04T04:23:59.411Z,8.50
2018-11-04T04:29:02.859Z,4.00
2018-11-04T04:34:06.363Z,4.50
2018-11-04T04:39:10.686Z,7.00
2018-11-04T04:44:14.130Z,5.00
2018-11-04T04:49:17.594Z,7.50
2018-11-04T04:54:21.064Z,5.20
2018-11-04T04:59:24.536Z,5.25
2018-11-04T05:04:27.962Z,5.00
2018-11-04T05:09:31.429Z,6.75
2018-11-04T05:14:34.895Z,5.20
2018-11-04T05:19:38.433Z,5.50
2018-11-04T05:24:41.890Z,7.25
2018-11-04T05:29:45.325Z,5.00
2018-11-04T05:34:48.775Z,6.20
2018-11-04T05:39:52.237Z,6.00
2018-11-04T05:44:55.674Z,6.00
2018-11-04T05:49:59.151Z,5.40
2018-11-04T05:55:02.593Z,6.75
2018-11-04T06:00:07.640Z,5.00
2018-11-04T06:05:11.730Z,4.40
2018-11-04T06:10:15.183Z,5.00
2018-11-04T06:15:18.620Z,6.00
2018-11-04T06:20:22.050Z,5.40
2018-11-04T06:25:25.527Z,5.80
2018-11-04T06:30:29.007Z,6.60
2018-11-04T06:35:32.446Z,5.00
2018-11-04T06:40:35.935Z,6.25
2018-11-04T06:45:39.375Z,6.00
2018-11-04T06:50:42.963Z,3.50
2018-11-04T06:55:46.469Z,4.50
2018-11-04T07:00:50.187Z,5.80
2018-11-04T07:05:53.647Z,4.00
2018-11-04T07:10:57.165Z,4.25
2018-11-04T07:16:00.788Z,5.00
2018-11-04T07:21:04.235Z,3.00
2018-11-04T07:26:07.952Z,4.60
2018-11-04T07:31:12.112Z,4.50
2018-11-04T07:36:16.109Z,3.80
2018-11-04T07:41:20.679Z,3.40
2018-11-04T07:46:24.110Z,4.00
2018-11-04T07:51:27.638Z,4.60
2018-11-04T07:56:31.055Z,4.25
2018-11-04T08:01:34.598Z,4.00
2018-11-04T08:06:38.074Z,23.00
2018-11-04T08:11:41.529Z,28.50
2018-11-04T08:16:45.034Z,35.80
2018-11-04T08:21:48.528Z,31.00
2018-11-04T08:26:52.117Z,23.25
2018-11-04T08:31:55.609Z,22.75
2018-11-04T08:36:59.098Z,20.50
2018-11-04T08:42:02.886Z,20.25
2018-11-04T08:47:06.548Z,22.50
2018-11-04T08:52:10.054Z,22.00
2018-11-04T08:57:13.971Z,20.75
2018-11-04T09:02:17.465Z,15.00
2018-11-04T09:07:20.984Z,16.80
2018-11-04T09:12:24.509Z,17.60
2018-11-04T09:17:28.275Z,18.60
2018-11-04T09:22:31.843Z,19.25
2018-11-04T09:27:35.659Z,19.00
2018-11-04T09:32:39.185Z,19.75
2018-11-04T09:37:42.707Z,14.25
2018-11-04T09:42:46.156Z,16.00
2018-11-04T09:47:49.615Z,14.75
2018-11-04T09:52:53.631Z,12.40
2018-11-04T09:57:57.121Z,17.40
2018-11-04T10:03:00.583Z,15.00
2018-11-04T10:08:04.080Z,16.00
2018-11-04T10:13:07.620Z,16.25
2018-11-04T10:18:11.093Z,17.00
2018-11-04T10:23:15.167Z,19.25
2018-11-04T10:28:19.284Z,15.00
2018-11-04T10:33:22.774Z,15.75
2018-11-04T10:38:26.234Z,15.75
2018-11-04T10:43:29.671Z,15.75
2018-11-04T10:48:33.181Z,14.60
2018-11-04T10:53:36.647Z,14.00
2018-11-04T10:58:40.115Z,11.40
2018-11-04T11:03:43.590Z,17.25
2018-11-04T11:08:47.043Z,13.40
2018-11-04T11:13:50.538Z,16.00
2018-11-04T11:18:54.017Z,13.40
2018-11-04T11:23:57.612Z,15.00
2018-11-04T11:29:01.089Z,20.00
2018-11-04T11:34:04.719Z,15.25
2018-11-04T11:39:10.000Z,22.50
2018-11-04T11:44:13.458Z,31.50
2018-11-04T11:49:16.920Z,30.60
2018-11-04T11:54:20.362Z,33.75
2018-11-04T11:59:23.874Z,42.20
2018-11-04T12:04:27.279Z,41.50
2018-11-04T12:09:30.802Z,37.80
2018-11-04T12:14:34.253Z,35.80
2018-11-04T12:19:37.687Z,31.00
2018-11-04T12:24:41.118Z,24.60
2018-11-04T12:29:44.647Z,22.25
2018-11-04T12:34:48.126Z,24.80
2018-11-04T12:39:51.850Z,23.60
2018-11-04T12:44:55.299Z,25.20
2018-11-04T12:49:58.758Z,20.75
2018-11-04T12:55:02.456Z,24.40
2018-11-04T13:00:09.634Z,21.20
2018-11-04T13:05:13.156Z,20.20
2018-11-04T13:10:16.706Z,24.00
2018-11-04T13:15:20.148Z,22.00
2018-11-04T13:20:23.623Z,22.00
2018-11-04T13:25:27.079Z,20.00
2018-11-04T13:30:30.560Z,20.50
2018-11-04T13:35:34.015Z,17.00
2018-11-04T13:40:37.458Z,19.20
2018-11-04T13:45:40.917Z,19.00
2018-11-04T13:50:44.374Z,16.00
2018-11-04T13:55:47.830Z,18.60
2018-11-04T14:00:51.375Z,21.50
2018-11-04T14:05:54.838Z,18.60
2018-11-04T14:10:58.302Z,16.50
2018-11-04T14:16:01.809Z,18.20
2018-11-04T14:21:05.470Z,13.50
2018-11-04T14:26:09.003Z,16.40
2018-11-04T14:31:12.473Z,19.50
2018-11-04T14:36:15.925Z,17.00
2018-11-04T14:41:19.430Z,19.50
2018-11-04T14:46:22.930Z,18.40
2018-11-04T14:51:26.384Z,14.50
2018-11-04T14:56:30.249Z,20.00
2018-11-04T15:01:33.877Z,15.40
2018-11-04T15:06:37.293Z,17.00
2018-11-04T15:11:40.759Z,16.25
2018-11-04T15:16:44.186Z,20.00
2018-11-04T15:21:47.658Z,19.40
2018-11-04T15:26:51.163Z,17.50
2018-11-04T15:32:17.078Z,18.00
2018-11-04T15:37:20.528Z,21.00
2018-11-04T15:42:23.986Z,18.60
2018-11-04T15:47:27.455Z,19.00
2018-11-04T15:52:30.946Z,21.80
2018-11-04T15:57:34.400Z,17.50
2018-11-04T16:02:37.856Z,15.40
2018-11-04T16:07:41.303Z,19.75
2018-11-04T16:12:44.750Z,16.80
2018-11-04T16:17:48.180Z,16.20
2018-11-04T16:22:51.622Z,14.00
2018-11-04T16:27:55.074Z,15.60
2018-11-04T16:32:58.542Z,13.50
2018-11-04T16:38:02.133Z,14.80
2018-11-04T16:43:05.665Z,16.50
2018-11-04T16:48:09.324Z,17.00
2018-11-04T16:53:12.874Z,11.25
2018-11-04T16:58:16.385Z,13.25
2018-11-04T17:03:19.829Z,14.20
2018-11-04T17:08:23.379Z,15.50
2018-11-04T17:13:26.928Z,13.40
2018-11-04T17:18:30.377Z,14.00
2018-11-04T17:23:33.820Z,14.60
2018-11-04T17:28:37.301Z,14.00
2018-11-04T17:33:40.735Z,13.50
2018-11-04T17:38:44.174Z,13.00
2018-11-04T17:43:47.813Z,16.00
2018-11-04T17:48:51.256Z,14.75
2018-11-04T17:53:54.764Z,14.00
2018-11-04T17:58:58.210Z,14.50
2018-11-04T18:04:01.824Z,13.00
2018-11-04T18:09:07.298Z,14.00
2018-11-04T18:14:10.796Z,15.20
2018-11-04T18:19:14.684Z,15.20
2018-11-04T18:24:18.200Z,15.25
2018-11-04T18:29:21.650Z,13.75
2018-11-04T18:34:25.120Z,13.80
2018-11-04T18:39:28.618Z,13.40
2018-11-04T18:44:32.199Z,16.75
2018-11-04T18:49:35.629Z,17.00
2018-11-04T18:54:39.305Z,17.20
2018-11-04T18:59:42.839Z,15.50
2018-11-04T19:04:46.290Z,18.75
2018-11-04T19:09:49.799Z,13.00
2018-11-04T19:14:53.265Z,12.20
2018-11-04T19:19:56.769Z,17.50
2018-11-04T19:25:00.326Z,21.75
2018-11-04T19:30:04.235Z,17.40
2018-11-04T19:35:08.799Z,19.60
2018-11-04T19:40:13.398Z,18.25
2018-11-04T19:45:16.875Z,20.40
2018-11-04T19:50:20.359Z,21.00
2018-11-04T19:55:23.839Z,33.20
2018-11-04T20:00:27.322Z,26.75
2018-11-04T20:05:30.785Z,31.60
2018-11-04T20:10:34.328Z,29.25
2018-11-04T20:15:37.795Z,25.00
2018-11-04T20:20:41.243Z,26.50
2018-11-04T20:25:50.145Z,27.20
2018-11-04T20:30:53.510Z,24.40
2018-11-04T20:35:57.054Z,24.50
2018-11-04T20:41:05.896Z,27.75
2018-11-04T20:46:09.390Z,25.75
2018-11-04T20:51:12.860Z,26.00
2018-11-04T20:56:21.532Z,22.50
2018-11-04T21:01:25.024Z,31.75
2018-11-04T21:06:28.481Z,25.50
2018-11-04T21:11:31.978Z,22.40
2018-11-04T21:16:35.562Z,23.25
2018-11-04T21:21:39.062Z,23.40
2018-11-04T21:26:42.514Z,26.25
2018-11-04T21:31:46.070Z,18.60
2018-11-04T21:36:49.609Z,22.80
2018-11-04T21:41:53.132Z,19.00
2018-11-04T21:46:56.863Z,23.75
2018-11-04T21:52:00.350Z,23.75
2018-11-04T21:57:03.906Z,21.40
2018-11-04T22:02:07.579Z,21.75
2018-11-04T22:07:11.287Z,21.60
2018-11-04T22:12:14.778Z,20.80
2018-11-04T22:17:18.345Z,23.50
2018-11-04T22:22:21.859Z,23.40
2018-11-04T22:27:25.374Z,18.00
2018-11-04T22:32:28.883Z,22.20
2018-11-04T22:37:32.369Z,18.00
2018-11-04T22:42:36.337Z,16.00
2018-11-04T22:47:40.917Z,19.00
2018-11-04T22:52:44.723Z,19.00
2018-11-04T22:57:48.288Z,18.50
2018-11-04T23:02:51.794Z,19.75
2018-11-04T23:07:55.339Z,17.75
2018-11-04T23:12:58.864Z,20.20
2018-11-04T23:18:02.358Z,18.00
2018-11-04T23:23:06.361Z,20.00
2018-11-04T23:28:10.506Z,17.60
2018-11-04T23:33:13.975Z,15.20
2018-11-04T23:38:17.883Z,13.75
2018-11-04T23:43:22.116Z,16.50
2018-11-04T23:48:25.705Z,15.80
2018-11-04T23:53:29.244Z,20.25
2018-11-04T23:58:33.255Z,19.25
